createdAt,value
2019-05-01T00:01:19.190Z,14.90
2019-05-01T00:03:50.894Z,14.80
2019-05-01T00:06:28.467Z,14.70
2019-05-01T00:08:58.540Z,14.70
2019-05-01T00:11:28.509Z,14.60
2019-05-01T00:13:58.689Z,14.70
2019-05-01T00:16:28.659Z,14.50
2019-05-01T00:18:59.643Z,14.50
2019-05-01T00:21:29.634Z,14.40
2019-05-01T00:23:59.654Z,14.30
2019-05-01T00:26:29.689Z,14.30
2019-05-01T00:28:59.629Z,14.30
2019-05-01T00:31:29.549Z,14.30
2019-05-01T00:33:59.521Z,14.20
2019-05-01T00:36:29.521Z,14.20
2019-05-01T00:38:59.633Z,14.10
2019-05-01T00:41:31.217Z,14.00
2019-05-01T00:44:01.186Z,14.00
2019-05-01T00:46:31.193Z,14.00
2019-05-01T00:49:01.094Z,13.90
2019-05-01T00:51:31.030Z,13.90
2019-05-01T00:54:00.929Z,13.90
2019-05-01T00:56:50.234Z,13.80
2019-05-01T00:59:21.845Z,13.70
2019-05-01T01:02:01.981Z,13.70
2019-05-01T01:04:31.977Z,13.80
2019-05-01T01:07:01.813Z,13.70
2019-05-01T01:09:31.733Z,13.70
2019-05-01T01:12:01.610Z,13.70
2019-05-01T01:14:31.501Z,13.70
2019-05-01T01:17:01.504Z,13.60
2019-05-01T01:19:31.497Z,13.60
2019-05-01T01:22:01.474Z,13.60
2019-05-01T01:24:31.478Z,13.60
2019-05-01T01:27:01.481Z,13.60
2019-05-01T01:29:31.524Z,13.60
2019-05-01T01:32:01.449Z,13.50
2019-05-01T01:34:31.445Z,13.50
2019-05-01T01:37:01.445Z,13.60
2019-05-01T01:39:31.477Z,13.60
2019-05-01T01:42:01.567Z,13.60
2019-05-01T01:44:42.237Z,13.70
2019-05-01T01:47:12.338Z,13.60
2019-05-01T01:49:42.317Z,13.50
2019-05-01T01:52:13.012Z,13.50
2019-05-01T01:54:42.985Z,13.60
2019-05-01T01:57:14.065Z,13.40
2019-05-01T01:59:44.210Z,13.50
2019-05-01T02:02:15.852Z,13.50
2019-05-01T02:04:53.344Z,13.60
2019-05-01T02:07:23.490Z,13.60
2019-05-01T02:09:53.557Z,13.60
2019-05-01T02:12:23.656Z,13.30
2019-05-01T02:14:53.617Z,13.10
2019-05-01T02:17:23.613Z,13.20
2019-05-01T02:19:53.679Z,13.30
2019-05-01T02:22:23.677Z,13.20
2019-05-01T02:24:53.677Z,13.20
2019-05-01T02:27:25.586Z,13.20
2019-05-01T02:29:57.429Z,13.10
2019-05-01T02:32:29.146Z,13.20
2019-05-01T02:35:00.781Z,13.30
2019-05-01T02:37:32.295Z,13.20
2019-05-01T02:40:06.427Z,13.10
2019-05-01T02:42:39.345Z,13.10
2019-05-01T02:45:10.050Z,13.00
2019-05-01T02:47:42.389Z,13.10
2019-05-01T02:50:12.589Z,12.80
2019-05-01T02:52:44.161Z,12.50
2019-05-01T02:55:16.021Z,12.50
2019-05-01T02:57:46.698Z,12.70
2019-05-01T03:00:16.702Z,12.50
2019-05-01T03:02:47.167Z,12.40
2019-05-01T03:05:17.172Z,12.50
2019-05-01T03:07:47.353Z,12.50
2019-05-01T03:10:17.519Z,12.60
2019-05-01T03:12:50.082Z,12.50
2019-05-01T03:15:22.463Z,12.50
2019-05-01T03:17:54.266Z,12.50
2019-05-01T03:20:25.995Z,12.50
2019-05-01T03:23:13.774Z,12.60
2019-05-01T03:25:44.935Z,12.60
2019-05-01T03:28:15.075Z,12.30
2019-05-01T03:30:45.016Z,12.00
2019-05-01T03:33:15.015Z,12.00
2019-05-01T03:35:44.986Z,12.00
2019-05-01T03:38:15.192Z,12.00
2019-05-01T03:40:45.237Z,12.00
2019-05-01T03:43:15.338Z,11.90
2019-05-01T03:45:45.442Z,11.80
2019-05-01T03:48:15.622Z,11.80
2019-05-01T03:50:47.067Z,11.90
2019-05-01T03:53:17.998Z,12.00
2019-05-01T03:55:48.370Z,12.10
2019-05-01T03:58:19.169Z,12.20
2019-05-01T04:00:50.870Z,12.00
2019-05-01T04:03:22.714Z,11.90
2019-05-01T04:05:53.011Z,11.90
2019-05-01T04:08:23.087Z,12.00
2019-05-01T04:10:54.219Z,12.10
2019-05-01T04:13:24.319Z,12.20
2019-05-01T04:15:54.798Z,12.00
2019-05-01T04:18:25.646Z,12.00
2019-05-01T04:20:56.130Z,12.10
2019-05-01T04:23:26.333Z,12.10
2019-05-01T04:25:56.297Z,12.10
2019-05-01T04:28:37.135Z,12.20
2019-05-01T04:31:11.875Z,12.30
2019-05-01T04:33:43.607Z,12.30
2019-05-01T04:36:21.233Z,12.20
2019-05-01T04:38:51.409Z,12.30
2019-05-01T04:41:21.512Z,12.50
2019-05-01T04:43:51.540Z,12.60
2019-05-01T04:46:21.626Z,12.60
2019-05-01T04:48:51.610Z,12.50
2019-05-01T04:51:22.081Z,12.40
2019-05-01T04:53:52.048Z,12.40
2019-05-01T04:56:22.355Z,12.40
2019-05-01T04:58:52.776Z,12.40
2019-05-01T05:01:22.877Z,12.50
2019-05-01T05:03:52.958Z,12.60
2019-05-01T05:06:22.961Z,12.70
2019-05-01T05:08:52.925Z,12.80
2019-05-01T05:11:27.550Z,12.90
2019-05-01T05:14:13.929Z,12.90
2019-05-01T05:16:51.787Z,13.00
2019-05-01T05:19:21.857Z,13.00
2019-05-01T05:21:52.433Z,13.10
2019-05-01T05:24:23.401Z,13.20
2019-05-01T05:26:53.878Z,13.10
2019-05-01T05:29:24.632Z,12.80
2019-05-01T05:31:56.480Z,12.80
2019-05-01T05:34:27.433Z,13.00
2019-05-01T05:37:00.138Z,13.20
2019-05-01T05:39:33.482Z,13.30
2019-05-01T05:42:04.398Z,13.40
2019-05-01T05:44:35.285Z,13.50
2019-05-01T05:47:05.753Z,13.40
2019-05-01T05:49:36.071Z,13.50
2019-05-01T05:52:11.755Z,13.60
2019-05-01T05:54:47.872Z,13.70
2019-05-01T05:57:24.506Z,13.90
2019-05-01T06:00:03.665Z,13.90
2019-05-01T06:02:49.633Z,14.00
2019-05-01T06:05:26.808Z,14.10
2019-05-01T06:08:16.242Z,14.20
2019-05-01T06:11:05.621Z,14.30
2019-05-01T06:13:56.887Z,14.40
2019-05-01T06:16:46.782Z,14.50
2019-05-01T06:19:16.369Z,14.60
2019-05-01T06:21:59.136Z,14.70
2019-05-01T06:24:44.493Z,14.90
2019-05-01T06:27:15.100Z,15.00
2019-05-01T06:29:46.281Z,15.10
2019-05-01T06:32:16.213Z,15.10
2019-05-01T06:34:46.313Z,15.10
2019-05-01T06:37:16.400Z,15.20
2019-05-01T06:39:48.133Z,15.30
2019-05-01T06:42:19.900Z,15.40
2019-05-01T06:44:54.741Z,15.50
2019-05-01T06:47:42.769Z,15.60
2019-05-01T06:50:14.622Z,15.70
2019-05-01T06:52:44.854Z,15.80
2019-05-01T06:55:14.929Z,15.80
2019-05-01T06:57:45.650Z,15.90
2019-05-01T07:00:17.173Z,16.00
2019-05-01T07:02:50.145Z,16.10
2019-05-01T07:05:21.887Z,16.20
2019-05-01T07:07:55.007Z,16.30
2019-05-01T07:10:31.480Z,16.40
2019-05-01T07:13:04.960Z,16.40
2019-05-01T07:15:33.289Z,16.50
2019-05-01T07:18:03.857Z,16.60
2019-05-01T07:20:35.678Z,16.80
2019-05-01T07:23:06.221Z,17.00
2019-05-01T07:25:39.489Z,17.10
2019-05-01T07:28:07.817Z,17.20
2019-05-01T07:30:41.455Z,17.30
2019-05-01T07:33:11.907Z,17.40
2019-05-01T07:35:42.850Z,17.50
2019-05-01T07:38:12.921Z,17.50
2019-05-01T07:40:43.337Z,17.50
2019-05-01T07:43:19.020Z,17.50
2019-05-01T07:45:54.679Z,17.70
2019-05-01T07:48:41.297Z,17.60
2019-05-01T07:51:08.976Z,17.60
2019-05-01T07:53:39.997Z,17.70
2019-05-01T07:56:10.454Z,17.90
2019-05-01T07:58:40.445Z,17.90
2019-05-01T08:01:19.985Z,17.80
2019-05-01T08:03:49.773Z,17.70
2019-05-01T08:06:21.691Z,17.80
2019-05-01T08:08:51.466Z,17.90
2019-05-01T08:11:21.361Z,18.00
2019-05-01T08:13:51.380Z,18.10
2019-05-01T08:16:21.457Z,18.10
2019-05-01T08:18:53.139Z,18.10
2019-05-01T08:21:26.035Z,18.10
2019-05-01T08:23:56.461Z,18.10
2019-05-01T08:26:26.406Z,18.10
2019-05-01T08:29:06.821Z,18.20
2019-05-01T08:31:53.553Z,18.30
2019-05-01T08:34:30.929Z,18.30
2019-05-01T08:37:01.009Z,18.20
2019-05-01T08:39:30.977Z,18.20
2019-05-01T08:42:02.935Z,18.20
2019-05-01T08:44:34.334Z,18.20
2019-05-01T08:47:25.916Z,18.20
2019-05-01T08:49:58.489Z,18.20
2019-05-01T08:52:28.611Z,18.20
2019-05-01T08:54:58.617Z,18.20
2019-05-01T08:57:29.074Z,18.30
2019-05-01T09:00:01.523Z,18.30
2019-05-01T09:02:36.634Z,18.30
2019-05-01T09:05:07.136Z,18.30
2019-05-01T09:07:37.543Z,18.30
2019-05-01T09:10:09.304Z,18.30
2019-05-01T09:12:42.517Z,18.30
2019-05-01T09:15:14.363Z,18.30
2019-05-01T09:17:43.943Z,18.30
2019-05-01T09:20:16.707Z,18.30
2019-05-01T09:22:46.609Z,18.30
2019-05-01T09:25:18.141Z,18.40
2019-05-01T09:27:49.709Z,18.40
2019-05-01T09:30:21.966Z,18.40
2019-05-01T09:32:54.473Z,18.50
2019-05-01T09:35:24.949Z,18.50
2019-05-01T09:37:54.893Z,18.60
2019-05-01T09:40:24.866Z,18.60
2019-05-01T09:42:59.271Z,18.60
2019-05-01T09:45:26.554Z,18.60
2019-05-01T09:47:56.766Z,18.50
2019-05-01T09:50:30.450Z,18.60
2019-05-01T09:53:05.819Z,18.60
2019-05-01T09:55:46.328Z,18.60
2019-05-01T09:58:16.374Z,18.60
2019-05-01T10:00:48.842Z,18.70
2019-05-01T10:03:18.363Z,18.80
2019-05-01T10:05:48.417Z,18.80
2019-05-01T10:08:19.417Z,18.80
2019-05-01T10:10:49.565Z,18.90
2019-05-01T10:13:22.436Z,18.80
2019-05-01T10:15:51.261Z,18.80
2019-05-01T10:18:21.269Z,18.80
2019-05-01T10:20:51.169Z,18.90
2019-05-01T10:23:21.112Z,18.90
2019-05-01T10:25:53.610Z,18.90
2019-05-01T10:28:25.299Z,19.00
2019-05-01T10:30:57.745Z,19.00
2019-05-01T10:33:32.718Z,19.10
2019-05-01T10:36:07.877Z,19.10
2019-05-01T10:38:40.000Z,19.30
2019-05-01T10:41:10.587Z,19.30
2019-05-01T10:43:40.680Z,19.40
2019-05-01T10:46:10.597Z,19.30
2019-05-01T10:48:40.498Z,19.30
2019-05-01T10:51:10.514Z,19.30
2019-05-01T10:53:43.165Z,19.40
2019-05-01T10:56:12.114Z,19.40
2019-05-01T10:58:43.487Z,19.40
2019-05-01T11:01:15.740Z,19.50
2019-05-01T11:03:45.821Z,19.50
2019-05-01T11:06:15.812Z,19.50
2019-05-01T11:08:45.733Z,19.50
2019-05-01T11:11:15.771Z,19.70
2019-05-01T11:13:45.754Z,19.80
2019-05-01T11:16:15.789Z,19.90
2019-05-01T11:18:45.793Z,20.00
2019-05-01T11:21:15.708Z,20.00
2019-05-01T11:23:46.673Z,20.00
2019-05-01T11:26:16.652Z,20.10
2019-05-01T11:28:46.603Z,20.00
2019-05-01T11:31:18.243Z,20.00
2019-05-01T11:33:58.821Z,20.10
2019-05-01T11:36:33.143Z,20.20
2019-05-01T11:39:13.721Z,20.20
2019-05-01T11:41:45.360Z,20.30
2019-05-01T11:44:15.325Z,20.20
2019-05-01T11:46:45.343Z,20.20
2019-05-01T11:49:15.382Z,20.30
2019-05-01T11:51:45.362Z,20.30
2019-05-01T11:54:15.437Z,20.30
2019-05-01T11:56:46.331Z,20.40
2019-05-01T11:59:16.372Z,20.40
2019-05-01T12:01:46.392Z,20.30
2019-05-01T12:04:16.361Z,20.40
2019-05-01T12:06:46.378Z,20.40
2019-05-01T12:09:16.450Z,20.50
2019-05-01T12:11:48.089Z,20.50
2019-05-01T12:14:18.025Z,20.50
2019-05-01T12:16:55.699Z,20.60
2019-05-01T12:19:32.853Z,20.50
2019-05-01T12:22:02.817Z,20.60
2019-05-01T12:24:32.891Z,20.60
2019-05-01T12:27:02.821Z,20.60
2019-05-01T12:29:32.681Z,20.50
2019-05-01T12:32:02.665Z,20.50
2019-05-01T12:34:32.606Z,20.50
2019-05-01T12:37:16.104Z,20.60
2019-05-01T12:39:46.450Z,20.60
2019-05-01T12:42:18.059Z,20.60
2019-05-01T12:44:47.989Z,20.70
2019-05-01T12:47:19.599Z,20.80
2019-05-01T12:49:51.323Z,20.90
2019-05-01T12:52:25.654Z,21.00
2019-05-01T12:54:57.225Z,21.00
2019-05-01T12:57:27.222Z,21.00
2019-05-01T13:00:08.182Z,21.00
2019-05-01T13:02:28.910Z,20.90
2019-05-01T13:04:58.805Z,21.00
2019-05-01T13:07:29.171Z,21.00
2019-05-01T13:09:59.677Z,21.00
2019-05-01T13:12:29.690Z,21.00
2019-05-01T13:14:59.590Z,21.10
2019-05-01T13:17:29.417Z,21.10
2019-05-01T13:19:59.361Z,21.10
2019-05-01T13:22:29.284Z,21.10
2019-05-01T13:24:59.219Z,21.10
2019-05-01T13:27:39.313Z,21.20
2019-05-01T13:30:16.492Z,21.20
2019-05-01T13:32:51.803Z,21.10
2019-05-01T13:35:21.775Z,21.00
2019-05-01T13:37:51.702Z,21.10
2019-05-01T13:40:21.918Z,21.10
2019-05-01T13:42:51.893Z,21.10
2019-05-01T13:45:21.870Z,21.20
2019-05-01T13:47:54.292Z,21.30
2019-05-01T13:50:23.950Z,21.20
2019-05-01T13:52:53.952Z,21.20
2019-05-01T13:55:23.925Z,21.20
2019-05-01T13:57:53.869Z,21.20
2019-05-01T14:00:25.581Z,21.20
2019-05-01T14:02:55.653Z,21.30
2019-05-01T14:05:25.629Z,21.20
2019-05-01T14:07:55.633Z,21.40
2019-05-01T14:10:25.730Z,21.40
2019-05-01T14:12:55.805Z,21.20
2019-05-01T14:15:25.808Z,21.10
2019-05-01T14:17:55.681Z,21.10
2019-05-01T14:20:30.078Z,21.30
2019-05-01T14:23:01.615Z,21.30
2019-05-01T14:25:49.566Z,21.40
2019-05-01T14:28:19.697Z,21.40
2019-05-01T14:30:49.634Z,21.40
2019-05-01T14:33:19.537Z,21.40
2019-05-01T14:35:49.545Z,21.40
2019-05-01T14:38:20.413Z,21.20
2019-05-01T14:40:50.414Z,21.10
2019-05-01T14:43:20.417Z,21.20
2019-05-01T14:45:50.409Z,21.30
2019-05-01T14:48:20.384Z,21.40
2019-05-01T14:50:50.326Z,21.50
2019-05-01T14:53:20.222Z,21.50
2019-05-01T14:55:50.229Z,21.50
2019-05-01T14:58:20.250Z,21.60
2019-05-01T15:00:50.226Z,21.60
2019-05-01T15:03:20.153Z,21.60
2019-05-01T15:05:50.159Z,21.60
2019-05-01T15:08:20.125Z,21.60
2019-05-01T15:10:50.209Z,21.60
2019-05-01T15:13:21.820Z,21.60
2019-05-01T15:15:53.398Z,21.60
2019-05-01T15:18:24.946Z,21.50
2019-05-01T15:20:54.941Z,21.40
2019-05-01T15:23:24.845Z,21.40
2019-05-01T15:25:54.954Z,21.50
2019-05-01T15:28:24.921Z,21.50
2019-05-01T15:30:54.861Z,21.50
2019-05-01T15:33:24.844Z,21.60
2019-05-01T15:35:54.804Z,21.60
2019-05-01T15:38:24.639Z,21.60
2019-05-01T15:41:02.338Z,21.50
2019-05-01T15:43:39.753Z,21.50
2019-05-01T15:46:09.622Z,21.60
2019-05-01T15:48:39.543Z,21.60
2019-05-01T15:51:09.545Z,21.60
2019-05-01T15:53:39.453Z,21.60
2019-05-01T15:56:09.396Z,21.50
2019-05-01T15:58:39.224Z,21.60
2019-05-01T16:01:09.301Z,21.60
2019-05-01T16:03:39.137Z,21.70
2019-05-01T16:06:09.150Z,21.70
2019-05-01T16:08:39.057Z,21.70
2019-05-01T16:11:22.697Z,21.70
2019-05-01T16:13:52.746Z,21.60
2019-05-01T16:16:22.749Z,21.60
2019-05-01T16:18:52.720Z,21.50
2019-05-01T16:21:22.584Z,21.50
2019-05-01T16:23:52.506Z,21.50
2019-05-01T16:26:22.409Z,21.50
2019-05-01T16:28:52.417Z,21.50
2019-05-01T16:31:22.258Z,21.40
2019-05-01T16:33:52.261Z,21.40
2019-05-01T16:36:22.189Z,21.30
2019-05-01T16:39:10.153Z,21.20
2019-05-01T16:41:40.401Z,21.10
2019-05-01T16:44:10.414Z,21.00
2019-05-01T16:46:40.322Z,21.00
2019-05-01T16:49:10.297Z,21.00
2019-05-01T16:51:40.237Z,21.10
2019-05-01T16:54:11.448Z,21.40
2019-05-01T16:56:41.352Z,22.00
2019-05-01T16:59:11.212Z,22.80
2019-05-01T17:01:42.749Z,23.00
2019-05-01T17:04:26.208Z,22.50
2019-05-01T17:07:02.622Z,21.90
2019-05-01T17:09:50.086Z,21.60
2019-05-01T17:12:25.361Z,21.30
2019-05-01T17:14:56.416Z,21.00
2019-05-01T17:17:27.085Z,20.90
2019-05-01T17:19:57.229Z,20.70
2019-05-01T17:22:27.258Z,20.60
2019-05-01T17:24:59.096Z,20.50
2019-05-01T17:27:30.622Z,20.40
2019-05-01T17:30:00.742Z,20.30
2019-05-01T17:32:30.839Z,20.20
2019-05-01T17:35:01.842Z,20.20
2019-05-01T17:37:32.760Z,20.20
2019-05-01T17:40:04.045Z,20.10
2019-05-01T17:42:37.630Z,20.10
2019-05-01T17:45:07.385Z,20.00
2019-05-01T17:47:37.477Z,20.00
2019-05-01T17:50:07.728Z,19.90
2019-05-01T17:52:37.878Z,19.90
2019-05-01T17:55:08.161Z,19.80
2019-05-01T17:57:38.265Z,19.80
2019-05-01T18:00:26.197Z,19.70
2019-05-01T18:03:15.877Z,19.70
2019-05-01T18:05:47.897Z,19.60
2019-05-01T18:08:17.929Z,19.50
2019-05-01T18:10:47.969Z,19.50
2019-05-01T18:13:17.989Z,19.40
2019-05-01T18:15:47.970Z,19.40
2019-05-01T18:18:18.014Z,19.30
2019-05-01T18:20:48.037Z,19.30
2019-05-01T18:23:35.677Z,19.20
2019-05-01T18:26:10.356Z,19.20
2019-05-01T18:29:00.940Z,19.10
2019-05-01T18:31:32.022Z,18.90
2019-05-01T18:34:04.525Z,18.90
2019-05-01T18:36:55.035Z,18.80
2019-05-01T18:39:36.391Z,18.80
2019-05-01T18:42:13.399Z,18.70
2019-05-01T18:44:42.466Z,18.60
2019-05-01T18:47:13.034Z,18.60
2019-05-01T18:49:43.120Z,18.50
2019-05-01T18:52:13.212Z,18.50
2019-05-01T18:54:43.191Z,18.40
2019-05-01T18:57:13.283Z,18.30
2019-05-01T18:59:43.365Z,18.30
2019-05-01T19:02:20.510Z,18.30
2019-05-01T19:04:48.140Z,18.20
2019-05-01T19:07:18.149Z,18.20
2019-05-01T19:09:48.247Z,18.20
2019-05-01T19:12:18.438Z,18.10
2019-05-01T19:14:48.439Z,18.00
2019-05-01T19:17:18.498Z,17.90
2019-05-01T19:19:49.704Z,17.90
2019-05-01T19:22:19.795Z,18.00
2019-05-01T19:24:49.809Z,18.10
2019-05-01T19:27:21.229Z,18.20
2019-05-01T19:29:51.653Z,18.20
2019-05-01T19:32:21.870Z,18.20
2019-05-01T19:34:51.859Z,18.10
2019-05-01T19:37:23.692Z,18.10
2019-05-01T19:39:54.963Z,18.00
2019-05-01T19:42:25.165Z,18.00
2019-05-01T19:44:56.285Z,18.00
2019-05-01T19:47:27.150Z,18.00
2019-05-01T19:50:06.706Z,17.90
2019-05-01T19:52:32.498Z,17.80
2019-05-01T19:55:06.460Z,17.70
2019-05-01T19:57:35.789Z,17.70
2019-05-01T20:00:07.539Z,17.70
2019-05-01T20:02:38.398Z,17.70
2019-05-01T20:05:11.177Z,17.70
2019-05-01T20:07:41.366Z,17.50
2019-05-01T20:10:12.022Z,17.50
2019-05-01T20:12:42.130Z,17.50
2019-05-01T20:15:12.459Z,17.40
2019-05-01T20:17:42.457Z,17.40
2019-05-01T20:20:12.517Z,17.30
2019-05-01T20:22:42.603Z,17.20
2019-05-01T20:25:14.620Z,17.20
2019-05-01T20:27:47.767Z,17.20
2019-05-01T20:30:16.331Z,17.10
2019-05-01T20:32:46.410Z,17.00
2019-05-01T20:35:16.469Z,17.00
2019-05-01T20:37:46.594Z,16.90
2019-05-01T20:40:16.750Z,17.00
2019-05-01T20:42:46.825Z,17.10
2019-05-01T20:45:18.194Z,17.10
2019-05-01T20:47:48.701Z,16.90
2019-05-01T20:50:18.922Z,16.80
2019-05-01T20:52:49.107Z,16.80
2019-05-01T20:55:19.210Z,16.70
2019-05-01T20:57:50.052Z,16.60
2019-05-01T21:00:21.980Z,16.60
2019-05-01T21:02:52.091Z,16.50
2019-05-01T21:05:23.626Z,16.50
2019-05-01T21:07:58.994Z,16.40
2019-05-01T21:10:34.353Z,16.50
2019-05-01T21:13:06.153Z,16.50
2019-05-01T21:15:36.386Z,16.40
2019-05-01T21:18:06.461Z,16.30
2019-05-01T21:20:36.530Z,16.10
2019-05-01T21:23:10.464Z,16.20
2019-05-01T21:25:38.217Z,16.20
2019-05-01T21:28:08.257Z,16.20
2019-05-01T21:30:38.737Z,16.20
2019-05-01T21:33:11.901Z,16.10
2019-05-01T21:35:44.458Z,16.10
2019-05-01T21:38:14.391Z,16.10
2019-05-01T21:40:44.462Z,16.00
2019-05-01T21:43:14.406Z,16.00
2019-05-01T21:45:44.418Z,16.00
2019-05-01T21:48:14.338Z,16.00
2019-05-01T21:50:44.291Z,15.90
2019-05-01T21:53:14.293Z,15.80
2019-05-01T21:55:44.299Z,15.70
2019-05-01T21:58:15.323Z,15.70
2019-05-01T22:00:45.890Z,15.70
2019-05-01T22:03:16.745Z,15.70
2019-05-01T22:05:47.717Z,15.60
2019-05-01T22:08:17.721Z,15.50
2019-05-01T22:10:52.095Z,15.40
2019-05-01T22:13:20.339Z,15.40
2019-05-01T22:15:53.110Z,15.30
2019-05-01T22:18:24.754Z,15.40
2019-05-01T22:20:56.495Z,15.50
2019-05-01T22:23:30.886Z,15.40
2019-05-01T22:26:01.568Z,15.50
2019-05-01T22:28:33.197Z,15.40
2019-05-01T22:31:21.681Z,15.50
2019-05-01T22:33:53.302Z,15.40
2019-05-01T22:36:23.396Z,15.30
2019-05-01T22:38:53.431Z,15.30
2019-05-01T22:41:23.510Z,15.30
2019-05-01T22:43:53.490Z,15.30
2019-05-01T22:46:25.149Z,15.10
2019-05-01T22:48:55.230Z,15.20
2019-05-01T22:51:26.384Z,15.20
2019-05-01T22:53:56.563Z,15.10
2019-05-01T22:56:26.594Z,15.00
2019-05-01T22:58:57.801Z,15.00
2019-05-01T23:01:29.296Z,15.00
2019-05-01T23:04:01.002Z,14.90
2019-05-01T23:06:31.039Z,14.80
2019-05-01T23:09:01.029Z,15.00
2019-05-01T23:11:34.341Z,15.00
2019-05-01T23:14:04.402Z,14.90
2019-05-01T23:16:36.243Z,14.70
2019-05-01T23:19:06.205Z,14.80
2019-05-01T23:21:36.136Z,14.90
2019-05-01T23:24:06.448Z,14.80
2019-05-01T23:26:36.460Z,14.90
2019-05-01T23:29:06.429Z,15.00
2019-05-01T23:31:36.450Z,14.90
2019-05-01T23:34:06.493Z,14.80
2019-05-01T23:36:37.484Z,14.80
2019-05-01T23:39:08.117Z,14.90
2019-05-01T23:41:45.626Z,14.90
2019-05-01T23:44:09.760Z,15.00
2019-05-01T23:46:39.602Z,15.10
2019-05-01T23:49:09.537Z,15.20
2019-05-01T23:51:39.517Z,15.30
2019-05-01T23:54:09.534Z,15.50
2019-05-01T23:56:39.485Z,15.60
2019-05-01T23:59:09.425Z,15.70
